sensor_id;sensor_type;location;lat;lon;timestamp;P1;durP1;ratioP1;P2;durP2;ratioP2
16766;SDS011;8501;49.926;8.404;2024-02-28T00:00:47;27.77;;;15.33;;
16766;SDS011;8501;49.926;8.404;2024-02-28T00:03:13;29.37;;;15.20;;
16766;SDS011;8501;49.926;8.404;2024-02-28T00:05:38;27.93;;;14.93;;
16766;SDS011;8501;49.926;8.404;2024-02-28T00:08:04;29.07;;;15.30;;
16766;SDS011;8501;49.926;8.404;2024-02-28T00:10:29;26.70;;;14.50;;
16766;SDS011;8501;49.926;8.404;2024-02-28T00:12:55;26.17;;;15.20;;
16766;SDS011;8501;49.926;8.404;2024-02-28T00:15:20;25.60;;;14.67;;
16766;SDS011;8501;49.926;8.404;2024-02-28T00:17:46;26.00;;;14.20;;
16766;SDS011;8501;49.926;8.404;2024-02-28T00:20:11;29.47;;;15.63;;
16766;SDS011;8501;49.926;8.404;2024-02-28T00:22:38;28.00;;;15.53;;
16766;SDS011;8501;49.926;8.404;2024-02-28T00:25:04;30.80;;;15.70;;
16766;SDS011;8501;49.926;8.404;2024-02-28T00:27:31;29.53;;;15.87;;
16766;SDS011;8501;49.926;8.404;2024-02-28T00:29:58;31.40;;;15.60;;
16766;SDS011;8501;49.926;8.404;2024-02-28T00:32:24;28.50;;;16.20;;
16766;SDS011;8501;49.926;8.404;2024-02-28T00:34:49;33.13;;;17.30;;
16766;SDS011;8501;49.926;8.404;2024-02-28T00:37:15;33.27;;;16.80;;
16766;SDS011;8501;49.926;8.404;2024-02-28T00:39:40;30.03;;;16.87;;
16766;SDS011;8501;49.926;8.404;2024-02-28T00:42:06;30.63;;;16.23;;
16766;SDS011;8501;49.926;8.404;2024-02-28T00:44:31;32.37;;;17.37;;
16766;SDS011;8501;49.926;8.404;2024-02-28T00:46:57;32.67;;;17.17;;
16766;SDS011;8501;49.926;8.404;2024-02-28T00:49:22;34.93;;;17.67;;
16766;SDS011;8501;49.926;8.404;2024-02-28T00:51:48;32.97;;;17.63;;
16766;SDS011;8501;49.926;8.404;2024-02-28T00:54:13;37.23;;;18.53;;
16766;SDS011;8501;49.926;8.404;2024-02-28T00:56:39;35.70;;;18.70;;
16766;SDS011;8501;49.926;8.404;2024-02-28T00:59:04;36.10;;;19.07;;
16766;SDS011;8501;49.926;8.404;2024-02-28T01:01:31;36.90;;;19.17;;
16766;SDS011;8501;49.926;8.404;2024-02-28T01:03:57;36.77;;;17.80;;
16766;SDS011;8501;49.926;8.404;2024-02-28T01:06:22;35.47;;;18.37;;
16766;SDS011;8501;49.926;8.404;2024-02-28T01:08:48;33.93;;;17.90;;
16766;SDS011;8501;49.926;8.404;2024-02-28T01:11:13;39.97;;;18.50;;
16766;SDS011;8501;49.926;8.404;2024-02-28T01:13:39;35.37;;;18.40;;
16766;SDS011;8501;49.926;8.404;2024-02-28T01:16:04;35.73;;;19.00;;
16766;SDS011;8501;49.926;8.404;2024-02-28T01:18:30;37.20;;;18.20;;
16766;SDS011;8501;49.926;8.404;2024-02-28T01:20:57;36.53;;;18.70;;
16766;SDS011;8501;49.926;8.404;2024-02-28T01:23:22;33.87;;;18.37;;
16766;SDS011;8501;49.926;8.404;2024-02-28T01:25:48;37.37;;;19.07;;
16766;SDS011;8501;49.926;8.404;2024-02-28T01:28:13;34.00;;;17.83;;
16766;SDS011;8501;49.926;8.404;2024-02-28T01:30:39;33.87;;;17.43;;
16766;SDS011;8501;49.926;8.404;2024-02-28T01:33:04;37.90;;;18.73;;
16766;SDS011;8501;49.926;8.404;2024-02-28T01:35:30;35.60;;;17.80;;
16766;SDS011;8501;49.926;8.404;2024-02-28T01:37:55;34.23;;;17.90;;
16766;SDS011;8501;49.926;8.404;2024-02-28T01:40:21;35.07;;;18.37;;
16766;SDS011;8501;49.926;8.404;2024-02-28T01:42:47;37.27;;;18.77;;
16766;SDS011;8501;49.926;8.404;2024-02-28T01:45:13;34.13;;;18.23;;
16766;SDS011;8501;49.926;8.404;2024-02-28T01:47:40;34.40;;;18.03;;
16766;SDS011;8501;49.926;8.404;2024-02-28T01:50:11;35.47;;;18.10;;
16766;SDS011;8501;49.926;8.404;2024-02-28T01:52:37;35.00;;;17.57;;
16766;SDS011;8501;49.926;8.404;2024-02-28T01:55:04;35.07;;;18.00;;
16766;SDS011;8501;49.926;8.404;2024-02-28T01:57:31;33.50;;;17.63;;
16766;SDS011;8501;49.926;8.404;2024-02-28T01:59:57;35.17;;;18.27;;
16766;SDS011;8501;49.926;8.404;2024-02-28T02:02:23;36.17;;;18.00;;
16766;SDS011;8501;49.926;8.404;2024-02-28T02:04:48;35.60;;;17.83;;
16766;SDS011;8501;49.926;8.404;2024-02-28T02:07:14;36.60;;;17.50;;
16766;SDS011;8501;49.926;8.404;2024-02-28T02:09:40;35.60;;;17.60;;
16766;SDS011;8501;49.926;8.404;2024-02-28T02:12:05;37.43;;;17.87;;
16766;SDS011;8501;49.926;8.404;2024-02-28T02:14:31;37.43;;;18.30;;
16766;SDS011;8501;49.926;8.404;2024-02-28T02:16:57;34.47;;;17.77;;
16766;SDS011;8501;49.926;8.404;2024-02-28T02:19:22;35.33;;;18.53;;
16766;SDS011;8501;49.926;8.404;2024-02-28T02:21:52;35.67;;;18.70;;
16766;SDS011;8501;49.926;8.404;2024-02-28T02:24:20;35.03;;;17.87;;
16766;SDS011;8501;49.926;8.404;2024-02-28T02:26:45;35.40;;;17.90;;
16766;SDS011;8501;49.926;8.404;2024-02-28T02:29:12;35.60;;;17.57;;
16766;SDS011;8501;49.926;8.404;2024-02-28T02:31:38;32.63;;;16.60;;
16766;SDS011;8501;49.926;8.404;2024-02-28T02:34:03;37.27;;;17.43;;
16766;SDS011;8501;49.926;8.404;2024-02-28T02:36:29;34.67;;;17.50;;
16766;SDS011;8501;49.926;8.404;2024-02-28T02:38:55;33.30;;;17.50;;
16766;SDS011;8501;49.926;8.404;2024-02-28T02:41:20;35.77;;;18.50;;
16766;SDS011;8501;49.926;8.404;2024-02-28T02:43:46;37.63;;;18.43;;
16766;SDS011;8501;49.926;8.404;2024-02-28T02:46:11;41.20;;;20.23;;
16766;SDS011;8501;49.926;8.404;2024-02-28T02:48:37;38.37;;;19.23;;
16766;SDS011;8501;49.926;8.404;2024-02-28T02:51:02;41.57;;;19.70;;
16766;SDS011;8501;49.926;8.404;2024-02-28T02:53:28;45.90;;;21.07;;
16766;SDS011;8501;49.926;8.404;2024-02-28T02:55:53;43.40;;;20.97;;
16766;SDS011;8501;49.926;8.404;2024-02-28T02:58:19;45.53;;;21.47;;
16766;SDS011;8501;49.926;8.404;2024-02-28T03:00:44;44.43;;;21.50;;
16766;SDS011;8501;49.926;8.404;2024-02-28T03:03:10;41.47;;;21.30;;
16766;SDS011;8501;49.926;8.404;2024-02-28T03:05:35;47.80;;;22.67;;
16766;SDS011;8501;49.926;8.404;2024-02-28T03:08:01;50.93;;;23.00;;
16766;SDS011;8501;49.926;8.404;2024-02-28T03:10:27;54.50;;;24.40;;
16766;SDS011;8501;49.926;8.404;2024-02-28T03:12:53;73.93;;;30.60;;
16766;SDS011;8501;49.926;8.404;2024-02-28T03:15:19;95.43;;;37.07;;
16766;SDS011;8501;49.926;8.404;2024-02-28T03:17:45;59.27;;;26.73;;
16766;SDS011;8501;49.926;8.404;2024-02-28T03:20:10;56.23;;;26.20;;
16766;SDS011;8501;49.926;8.404;2024-02-28T03:22:38;50.30;;;23.03;;
16766;SDS011;8501;49.926;8.404;2024-02-28T03:25:04;49.03;;;22.73;;
16766;SDS011;8501;49.926;8.404;2024-02-28T03:27:30;45.57;;;22.03;;
16766;SDS011;8501;49.926;8.404;2024-02-28T03:29:55;49.40;;;23.60;;
16766;SDS011;8501;49.926;8.404;2024-02-28T03:32:21;47.07;;;21.47;;
16766;SDS011;8501;49.926;8.404;2024-02-28T03:34:47;47.93;;;22.53;;
16766;SDS011;8501;49.926;8.404;2024-02-28T03:37:13;48.70;;;23.57;;
16766;SDS011;8501;49.926;8.404;2024-02-28T03:39:38;50.70;;;22.87;;
16766;SDS011;8501;49.926;8.404;2024-02-28T03:42:04;49.20;;;23.03;;
16766;SDS011;8501;49.926;8.404;2024-02-28T03:44:29;49.93;;;23.27;;
16766;SDS011;8501;49.926;8.404;2024-02-28T03:46:55;50.23;;;22.70;;
16766;SDS011;8501;49.926;8.404;2024-02-28T03:49:21;51.30;;;23.93;;
16766;SDS011;8501;49.926;8.404;2024-02-28T03:51:46;49.83;;;22.80;;
16766;SDS011;8501;49.926;8.404;2024-02-28T03:54:12;49.17;;;23.97;;
16766;SDS011;8501;49.926;8.404;2024-02-28T03:56:37;45.40;;;21.87;;
16766;SDS011;8501;49.926;8.404;2024-02-28T03:59:02;49.53;;;22.03;;
16766;SDS011;8501;49.926;8.404;2024-02-28T04:01:29;46.93;;;22.07;;
16766;SDS011;8501;49.926;8.404;2024-02-28T04:03:54;44.43;;;21.43;;
16766;SDS011;8501;49.926;8.404;2024-02-28T04:06:20;49.13;;;23.03;;
16766;SDS011;8501;49.926;8.404;2024-02-28T04:08:45;50.70;;;24.30;;
16766;SDS011;8501;49.926;8.404;2024-02-28T04:11:11;49.13;;;23.13;;
16766;SDS011;8501;49.926;8.404;2024-02-28T04:13:36;45.70;;;22.30;;
16766;SDS011;8501;49.926;8.404;2024-02-28T04:16:02;49.93;;;22.83;;
16766;SDS011;8501;49.926;8.404;2024-02-28T04:18:28;48.97;;;22.43;;
16766;SDS011;8501;49.926;8.404;2024-02-28T04:20:55;50.10;;;22.90;;
16766;SDS011;8501;49.926;8.404;2024-02-28T04:23:20;54.37;;;24.20;;
16766;SDS011;8501;49.926;8.404;2024-02-28T04:25:46;56.50;;;25.07;;
16766;SDS011;8501;49.926;8.404;2024-02-28T04:28:11;56.03;;;24.47;;
16766;SDS011;8501;49.926;8.404;2024-02-28T04:30:37;51.33;;;23.07;;
16766;SDS011;8501;49.926;8.404;2024-02-28T04:33:03;57.57;;;26.07;;
16766;SDS011;8501;49.926;8.404;2024-02-28T04:35:28;56.43;;;24.97;;
16766;SDS011;8501;49.926;8.404;2024-02-28T04:37:54;57.70;;;24.83;;
16766;SDS011;8501;49.926;8.404;2024-02-28T04:40:19;51.50;;;23.50;;
16766;SDS011;8501;49.926;8.404;2024-02-28T04:42:45;54.07;;;24.07;;
16766;SDS011;8501;49.926;8.404;2024-02-28T04:45:10;50.40;;;22.77;;
16766;SDS011;8501;49.926;8.404;2024-02-28T04:47:36;52.23;;;22.40;;
16766;SDS011;8501;49.926;8.404;2024-02-28T04:50:03;53.97;;;23.37;;
16766;SDS011;8501;49.926;8.404;2024-02-28T04:52:30;59.33;;;24.37;;
16766;SDS011;8501;49.926;8.404;2024-02-28T04:54:55;50.47;;;21.27;;
16766;SDS011;8501;49.926;8.404;2024-02-28T04:57:21;51.53;;;23.50;;
16766;SDS011;8501;49.926;8.404;2024-02-28T04:59:47;48.67;;;22.13;;
16766;SDS011;8501;49.926;8.404;2024-02-28T05:02:12;54.10;;;22.30;;
16766;SDS011;8501;49.926;8.404;2024-02-28T05:04:38;52.03;;;22.37;;
16766;SDS011;8501;49.926;8.404;2024-02-28T05:07:03;49.00;;;21.97;;
16766;SDS011;8501;49.926;8.404;2024-02-28T05:09:29;50.67;;;22.07;;
16766;SDS011;8501;49.926;8.404;2024-02-28T05:11:54;48.10;;;21.47;;
16766;SDS011;8501;49.926;8.404;2024-02-28T05:14:20;51.13;;;22.40;;
16766;SDS011;8501;49.926;8.404;2024-02-28T05:16:46;52.47;;;22.43;;
16766;SDS011;8501;49.926;8.404;2024-02-28T05:19:12;49.80;;;21.63;;
16766;SDS011;8501;49.926;8.404;2024-02-28T05:21:44;48.63;;;22.57;;
16766;SDS011;8501;49.926;8.404;2024-02-28T05:24:10;51.67;;;22.93;;
16766;SDS011;8501;49.926;8.404;2024-02-28T05:26:36;56.87;;;22.83;;
16766;SDS011;8501;49.926;8.404;2024-02-28T05:29:03;49.33;;;20.93;;
16766;SDS011;8501;49.926;8.404;2024-02-28T05:31:30;51.50;;;21.57;;
16766;SDS011;8501;49.926;8.404;2024-02-28T05:33:59;51.90;;;22.37;;
16766;SDS011;8501;49.926;8.404;2024-02-28T05:36:27;49.03;;;22.33;;
16766;SDS011;8501;49.926;8.404;2024-02-28T05:38:54;51.73;;;22.00;;
16766;SDS011;8501;49.926;8.404;2024-02-28T05:41:21;50.70;;;21.90;;
16766;SDS011;8501;49.926;8.404;2024-02-28T05:43:47;48.30;;;21.50;;
16766;SDS011;8501;49.926;8.404;2024-02-28T05:46:14;49.83;;;22.17;;
16766;SDS011;8501;49.926;8.404;2024-02-28T05:48:40;52.57;;;22.43;;
16766;SDS011;8501;49.926;8.404;2024-02-28T05:51:06;46.03;;;20.53;;
16766;SDS011;8501;49.926;8.404;2024-02-28T05:53:32;45.43;;;20.77;;
16766;SDS011;8501;49.926;8.404;2024-02-28T05:56:01;49.80;;;20.97;;
16766;SDS011;8501;49.926;8.404;2024-02-28T05:58:27;46.20;;;21.57;;
16766;SDS011;8501;49.926;8.404;2024-02-28T06:00:53;49.07;;;20.13;;
16766;SDS011;8501;49.926;8.404;2024-02-28T06:03:18;55.67;;;21.90;;
16766;SDS011;8501;49.926;8.404;2024-02-28T06:05:44;54.67;;;22.33;;
16766;SDS011;8501;49.926;8.404;2024-02-28T06:08:10;51.73;;;21.20;;
16766;SDS011;8501;49.926;8.404;2024-02-28T06:10:35;48.53;;;21.40;;
16766;SDS011;8501;49.926;8.404;2024-02-28T06:13:01;48.33;;;21.23;;
16766;SDS011;8501;49.926;8.404;2024-02-28T06:15:27;48.40;;;20.73;;
16766;SDS011;8501;49.926;8.404;2024-02-28T06:17:53;49.47;;;20.57;;
16766;SDS011;8501;49.926;8.404;2024-02-28T06:20:21;44.13;;;20.00;;
16766;SDS011;8501;49.926;8.404;2024-02-28T06:22:46;47.67;;;19.93;;
16766;SDS011;8501;49.926;8.404;2024-02-28T06:25:11;52.60;;;20.63;;
16766;SDS011;8501;49.926;8.404;2024-02-28T06:27:44;46.33;;;20.27;;
16766;SDS011;8501;49.926;8.404;2024-02-28T06:30:10;50.93;;;21.37;;
16766;SDS011;8501;49.926;8.404;2024-02-28T06:32:37;58.53;;;22.90;;
16766;SDS011;8501;49.926;8.404;2024-02-28T06:35:03;52.63;;;21.50;;
16766;SDS011;8501;49.926;8.404;2024-02-28T06:37:29;44.67;;;18.97;;
16766;SDS011;8501;49.926;8.404;2024-02-28T06:39:54;47.07;;;19.50;;
16766;SDS011;8501;49.926;8.404;2024-02-28T06:42:20;45.27;;;19.13;;
16766;SDS011;8501;49.926;8.404;2024-02-28T06:44:45;43.73;;;19.53;;
16766;SDS011;8501;49.926;8.404;2024-02-28T06:47:11;45.30;;;20.37;;
16766;SDS011;8501;49.926;8.404;2024-02-28T06:49:36;47.17;;;20.33;;
16766;SDS011;8501;49.926;8.404;2024-02-28T06:52:02;47.33;;;20.07;;
16766;SDS011;8501;49.926;8.404;2024-02-28T06:54:27;45.13;;;19.27;;
16766;SDS011;8501;49.926;8.404;2024-02-28T06:56:53;47.27;;;20.57;;
16766;SDS011;8501;49.926;8.404;2024-02-28T06:59:20;43.77;;;20.00;;
16766;SDS011;8501;49.926;8.404;2024-02-28T07:01:45;41.33;;;19.50;;
16766;SDS011;8501;49.926;8.404;2024-02-28T07:04:11;44.30;;;19.90;;
16766;SDS011;8501;49.926;8.404;2024-02-28T07:06:36;48.13;;;19.37;;
16766;SDS011;8501;49.926;8.404;2024-02-28T07:09:02;42.20;;;19.00;;
16766;SDS011;8501;49.926;8.404;2024-02-28T07:11:27;47.23;;;19.63;;
16766;SDS011;8501;49.926;8.404;2024-02-28T07:13:53;44.20;;;19.60;;
16766;SDS011;8501;49.926;8.404;2024-02-28T07:16:19;43.27;;;18.70;;
16766;SDS011;8501;49.926;8.404;2024-02-28T07:18:44;46.37;;;18.67;;
16766;SDS011;8501;49.926;8.404;2024-02-28T07:21:10;43.80;;;19.20;;
16766;SDS011;8501;49.926;8.404;2024-02-28T07:23:38;47.40;;;18.60;;
16766;SDS011;8501;49.926;8.404;2024-02-28T07:26:05;44.23;;;18.13;;
16766;SDS011;8501;49.926;8.404;2024-02-28T07:28:31;47.50;;;18.73;;
16766;SDS011;8501;49.926;8.404;2024-02-28T07:30:56;44.40;;;18.80;;
16766;SDS011;8501;49.926;8.404;2024-02-28T07:33:22;48.03;;;20.50;;
16766;SDS011;8501;49.926;8.404;2024-02-28T07:35:48;48.10;;;22.17;;
16766;SDS011;8501;49.926;8.404;2024-02-28T07:38:17;47.57;;;20.80;;
16766;SDS011;8501;49.926;8.404;2024-02-28T07:40:45;45.90;;;21.33;;
16766;SDS011;8501;49.926;8.404;2024-02-28T07:43:11;56.10;;;26.50;;
16766;SDS011;8501;49.926;8.404;2024-02-28T07:45:36;63.10;;;28.83;;
16766;SDS011;8501;49.926;8.404;2024-02-28T07:48:02;68.87;;;29.83;;
16766;SDS011;8501;49.926;8.404;2024-02-28T07:50:27;49.03;;;22.00;;
16766;SDS011;8501;49.926;8.404;2024-02-28T07:52:53;44.97;;;21.03;;
16766;SDS011;8501;49.926;8.404;2024-02-28T07:55:20;44.27;;;19.93;;
16766;SDS011;8501;49.926;8.404;2024-02-28T07:57:47;45.20;;;20.50;;
16766;SDS011;8501;49.926;8.404;2024-02-28T08:00:16;46.17;;;20.30;;
16766;SDS011;8501;49.926;8.404;2024-02-28T08:02:44;46.43;;;20.23;;
16766;SDS011;8501;49.926;8.404;2024-02-28T08:05:09;42.90;;;19.43;;
16766;SDS011;8501;49.926;8.404;2024-02-28T08:07:35;42.17;;;18.90;;
16766;SDS011;8501;49.926;8.404;2024-02-28T08:10:01;47.97;;;19.40;;
16766;SDS011;8501;49.926;8.404;2024-02-28T08:12:27;42.37;;;19.53;;
16766;SDS011;8501;49.926;8.404;2024-02-28T08:14:52;44.63;;;18.47;;
16766;SDS011;8501;49.926;8.404;2024-02-28T08:17:18;45.20;;;19.07;;
16766;SDS011;8501;49.926;8.404;2024-02-28T08:19:43;43.80;;;19.20;;
16766;SDS011;8501;49.926;8.404;2024-02-28T08:22:08;46.50;;;19.57;;
16766;SDS011;8501;49.926;8.404;2024-02-28T08:24:35;44.37;;;19.03;;
16766;SDS011;8501;49.926;8.404;2024-02-28T08:27:02;44.50;;;19.40;;
16766;SDS011;8501;49.926;8.404;2024-02-28T08:29:27;49.20;;;21.50;;
16766;SDS011;8501;49.926;8.404;2024-02-28T08:31:53;43.60;;;20.60;;
16766;SDS011;8501;49.926;8.404;2024-02-28T08:34:18;42.33;;;19.23;;
16766;SDS011;8501;49.926;8.404;2024-02-28T08:36:44;43.20;;;18.47;;
16766;SDS011;8501;49.926;8.404;2024-02-28T08:39:09;43.87;;;19.13;;
16766;SDS011;8501;49.926;8.404;2024-02-28T08:41:36;42.77;;;19.57;;
16766;SDS011;8501;49.926;8.404;2024-02-28T08:44:01;64.60;;;30.03;;
16766;SDS011;8501;49.926;8.404;2024-02-28T08:46:27;61.10;;;27.43;;
16766;SDS011;8501;49.926;8.404;2024-02-28T08:48:53;48.93;;;23.93;;
16766;SDS011;8501;49.926;8.404;2024-02-28T08:51:18;42.00;;;20.60;;
16766;SDS011;8501;49.926;8.404;2024-02-28T08:53:44;41.20;;;18.80;;
16766;SDS011;8501;49.926;8.404;2024-02-28T08:56:09;37.60;;;17.83;;
16766;SDS011;8501;49.926;8.404;2024-02-28T08:58:35;40.97;;;19.33;;
16766;SDS011;8501;49.926;8.404;2024-02-28T09:01:02;41.83;;;19.83;;
16766;SDS011;8501;49.926;8.404;2024-02-28T09:03:29;43.33;;;20.60;;
16766;SDS011;8501;49.926;8.404;2024-02-28T09:05:54;42.73;;;20.20;;
16766;SDS011;8501;49.926;8.404;2024-02-28T09:08:20;42.40;;;19.43;;
16766;SDS011;8501;49.926;8.404;2024-02-28T09:10:45;40.73;;;18.20;;
16766;SDS011;8501;49.926;8.404;2024-02-28T09:13:12;42.77;;;20.43;;
16766;SDS011;8501;49.926;8.404;2024-02-28T09:15:38;43.03;;;20.10;;
16766;SDS011;8501;49.926;8.404;2024-02-28T09:18:03;39.47;;;19.53;;
16766;SDS011;8501;49.926;8.404;2024-02-28T09:20:29;44.60;;;20.40;;
16766;SDS011;8501;49.926;8.404;2024-02-28T09:22:55;43.30;;;21.37;;
16766;SDS011;8501;49.926;8.404;2024-02-28T09:25:21;41.70;;;19.60;;
16766;SDS011;8501;49.926;8.404;2024-02-28T09:27:46;44.33;;;20.97;;
16766;SDS011;8501;49.926;8.404;2024-02-28T09:30:12;39.40;;;18.67;;
16766;SDS011;8501;49.926;8.404;2024-02-28T09:32:38;43.53;;;21.23;;
16766;SDS011;8501;49.926;8.404;2024-02-28T09:35:04;47.73;;;22.33;;
16766;SDS011;8501;49.926;8.404;2024-02-28T09:37:30;48.20;;;21.33;;
16766;SDS011;8501;49.926;8.404;2024-02-28T09:39:56;41.37;;;20.00;;
16766;SDS011;8501;49.926;8.404;2024-02-28T09:42:22;41.07;;;19.57;;
16766;SDS011;8501;49.926;8.404;2024-02-28T09:44:48;42.63;;;19.80;;
16766;SDS011;8501;49.926;8.404;2024-02-28T09:47:14;42.40;;;19.70;;
16766;SDS011;8501;49.926;8.404;2024-02-28T09:49:40;43.83;;;20.00;;
16766;SDS011;8501;49.926;8.404;2024-02-28T09:52:07;44.20;;;19.90;;
16766;SDS011;8501;49.926;8.404;2024-02-28T09:54:33;45.13;;;20.47;;
16766;SDS011;8501;49.926;8.404;2024-02-28T09:56:58;42.47;;;19.93;;
16766;SDS011;8501;49.926;8.404;2024-02-28T09:59:24;38.67;;;18.63;;
16766;SDS011;8501;49.926;8.404;2024-02-28T10:01:53;43.53;;;20.80;;
16766;SDS011;8501;49.926;8.404;2024-02-28T10:04:22;43.33;;;21.03;;
16766;SDS011;8501;49.926;8.404;2024-02-28T10:06:50;39.90;;;19.07;;
16766;SDS011;8501;49.926;8.404;2024-02-28T10:09:16;40.40;;;20.13;;
16766;SDS011;8501;49.926;8.404;2024-02-28T10:11:42;38.70;;;18.97;;
16766;SDS011;8501;49.926;8.404;2024-02-28T10:14:17;39.53;;;18.87;;
16766;SDS011;8501;49.926;8.404;2024-02-28T10:16:44;39.80;;;18.70;;
16766;SDS011;8501;49.926;8.404;2024-02-28T10:19:09;39.17;;;18.97;;
16766;SDS011;8501;49.926;8.404;2024-02-28T10:21:35;39.17;;;19.20;;
16766;SDS011;8501;49.926;8.404;2024-02-28T10:24:01;41.63;;;19.70;;
16766;SDS011;8501;49.926;8.404;2024-02-28T10:26:26;37.33;;;18.17;;
16766;SDS011;8501;49.926;8.404;2024-02-28T10:28:52;37.07;;;18.10;;
16766;SDS011;8501;49.926;8.404;2024-02-28T10:33:48;40.37;;;18.77;;
16766;SDS011;8501;49.926;8.404;2024-02-28T10:36:14;38.93;;;19.13;;
16766;SDS011;8501;49.926;8.404;2024-02-28T10:38:40;38.63;;;18.63;;
16766;SDS011;8501;49.926;8.404;2024-02-28T10:41:06;37.63;;;18.13;;
16766;SDS011;8501;49.926;8.404;2024-02-28T10:43:31;37.77;;;18.90;;
16766;SDS011;8501;49.926;8.404;2024-02-28T10:45:59;35.87;;;18.17;;
16766;SDS011;8501;49.926;8.404;2024-02-28T10:48:25;34.20;;;16.63;;
16766;SDS011;8501;49.926;8.404;2024-02-28T10:50:52;31.90;;;16.63;;
16766;SDS011;8501;49.926;8.404;2024-02-28T10:53:21;34.63;;;17.37;;
16766;SDS011;8501;49.926;8.404;2024-02-28T10:55:50;34.20;;;17.57;;
16766;SDS011;8501;49.926;8.404;2024-02-28T10:58:19;35.03;;;17.90;;
16766;SDS011;8501;49.926;8.404;2024-02-28T11:00:47;34.67;;;16.40;;
16766;SDS011;8501;49.926;8.404;2024-02-28T11:03:15;33.57;;;16.80;;
16766;SDS011;8501;49.926;8.404;2024-02-28T11:05:42;32.00;;;15.73;;
16766;SDS011;8501;49.926;8.404;2024-02-28T11:08:11;35.07;;;17.13;;
16766;SDS011;8501;49.926;8.404;2024-02-28T11:10:45;32.87;;;17.17;;
16766;SDS011;8501;49.926;8.404;2024-02-28T11:13:23;34.53;;;17.57;;
16766;SDS011;8501;49.926;8.404;2024-02-28T11:15:49;32.23;;;16.87;;
16766;SDS011;8501;49.926;8.404;2024-02-28T11:18:14;35.80;;;17.33;;
16766;SDS011;8501;49.926;8.404;2024-02-28T11:20:40;34.93;;;17.70;;
16766;SDS011;8501;49.926;8.404;2024-02-28T11:23:06;38.10;;;18.33;;
16766;SDS011;8501;49.926;8.404;2024-02-28T11:25:33;35.23;;;18.47;;
16766;SDS011;8501;49.926;8.404;2024-02-28T11:27:59;36.67;;;19.00;;
16766;SDS011;8501;49.926;8.404;2024-02-28T11:30:25;34.30;;;17.63;;
16766;SDS011;8501;49.926;8.404;2024-02-28T11:32:54;33.57;;;17.67;;
16766;SDS011;8501;49.926;8.404;2024-02-28T11:35:20;33.70;;;17.13;;
16766;SDS011;8501;49.926;8.404;2024-02-28T11:37:46;34.10;;;17.13;;
16766;SDS011;8501;49.926;8.404;2024-02-28T11:40:12;32.07;;;16.40;;
16766;SDS011;8501;49.926;8.404;2024-02-28T11:42:39;31.60;;;16.63;;
16766;SDS011;8501;49.926;8.404;2024-02-28T11:45:05;32.13;;;16.30;;
16766;SDS011;8501;49.926;8.404;2024-02-28T11:47:34;35.20;;;16.93;;
16766;SDS011;8501;49.926;8.404;2024-02-28T11:50:00;32.67;;;16.67;;
16766;SDS011;8501;49.926;8.404;2024-02-28T11:52:27;37.37;;;17.97;;
16766;SDS011;8501;49.926;8.404;2024-02-28T11:54:56;36.40;;;18.87;;
16766;SDS011;8501;49.926;8.404;2024-02-28T11:57:22;35.40;;;18.73;;
16766;SDS011;8501;49.926;8.404;2024-02-28T11:59:47;36.53;;;18.90;;
16766;SDS011;8501;49.926;8.404;2024-02-28T12:02:14;37.57;;;18.90;;
16766;SDS011;8501;49.926;8.404;2024-02-28T12:04:44;40.07;;;20.50;;
16766;SDS011;8501;49.926;8.404;2024-02-28T12:07:10;33.73;;;17.97;;
16766;SDS011;8501;49.926;8.404;2024-02-28T12:09:36;37.30;;;19.07;;
16766;SDS011;8501;49.926;8.404;2024-02-28T12:12:03;37.97;;;18.87;;
16766;SDS011;8501;49.926;8.404;2024-02-28T12:14:36;37.80;;;18.87;;
16766;SDS011;8501;49.926;8.404;2024-02-28T12:17:03;33.33;;;17.50;;
16766;SDS011;8501;49.926;8.404;2024-02-28T12:19:29;38.07;;;18.00;;
16766;SDS011;8501;49.926;8.404;2024-02-28T12:21:55;35.83;;;18.13;;
16766;SDS011;8501;49.926;8.404;2024-02-28T12:24:22;34.07;;;17.67;;
16766;SDS011;8501;49.926;8.404;2024-02-28T12:26:47;33.73;;;17.90;;
16766;SDS011;8501;49.926;8.404;2024-02-28T12:29:13;31.57;;;16.57;;
16766;SDS011;8501;49.926;8.404;2024-02-28T12:31:39;35.93;;;17.50;;
16766;SDS011;8501;49.926;8.404;2024-02-28T12:34:04;31.10;;;16.47;;
16766;SDS011;8501;49.926;8.404;2024-02-28T12:36:30;31.83;;;16.57;;
16766;SDS011;8501;49.926;8.404;2024-02-28T12:38:57;32.80;;;16.93;;
16766;SDS011;8501;49.926;8.404;2024-02-28T12:41:24;30.80;;;16.63;;
16766;SDS011;8501;49.926;8.404;2024-02-28T12:43:50;30.63;;;16.47;;
16766;SDS011;8501;49.926;8.404;2024-02-28T12:46:16;32.20;;;16.77;;
16766;SDS011;8501;49.926;8.404;2024-02-28T12:48:41;32.43;;;16.47;;
16766;SDS011;8501;49.926;8.404;2024-02-28T12:51:08;29.03;;;16.17;;
16766;SDS011;8501;49.926;8.404;2024-02-28T12:53:38;31.03;;;16.27;;
16766;SDS011;8501;49.926;8.404;2024-02-28T12:56:05;29.53;;;15.67;;
16766;SDS011;8501;49.926;8.404;2024-02-28T12:58:30;28.53;;;14.90;;
16766;SDS011;8501;49.926;8.404;2024-02-28T13:00:56;27.80;;;14.30;;
16766;SDS011;8501;49.926;8.404;2024-02-28T13:03:21;25.67;;;13.70;;
16766;SDS011;8501;49.926;8.404;2024-02-28T13:05:47;24.87;;;13.37;;
16766;SDS011;8501;49.926;8.404;2024-02-28T13:08:12;23.77;;;13.07;;
16766;SDS011;8501;49.926;8.404;2024-02-28T13:10:38;21.73;;;12.63;;
16766;SDS011;8501;49.926;8.404;2024-02-28T13:13:06;21.20;;;12.07;;
16766;SDS011;8501;49.926;8.404;2024-02-28T13:15:32;20.47;;;11.70;;
16766;SDS011;8501;49.926;8.404;2024-02-28T13:17:57;24.30;;;14.93;;
16766;SDS011;8501;49.926;8.404;2024-02-28T13:20:23;19.67;;;11.40;;
16766;SDS011;8501;49.926;8.404;2024-02-28T13:22:49;20.53;;;11.27;;
16766;SDS011;8501;49.926;8.404;2024-02-28T13:25:15;19.00;;;10.50;;
16766;SDS011;8501;49.926;8.404;2024-02-28T13:27:43;20.10;;;11.20;;
16766;SDS011;8501;49.926;8.404;2024-02-28T13:30:08;19.90;;;11.30;;
16766;SDS011;8501;49.926;8.404;2024-02-28T13:32:34;21.13;;;11.30;;
16766;SDS011;8501;49.926;8.404;2024-02-28T13:35:00;18.10;;;10.40;;
16766;SDS011;8501;49.926;8.404;2024-02-28T13:37:26;17.20;;;10.37;;
16766;SDS011;8501;49.926;8.404;2024-02-28T13:39:51;22.03;;;11.00;;
16766;SDS011;8501;49.926;8.404;2024-02-28T13:42:17;21.83;;;11.33;;
16766;SDS011;8501;49.926;8.404;2024-02-28T13:44:45;19.23;;;10.80;;
16766;SDS011;8501;49.926;8.404;2024-02-28T13:47:11;17.97;;;10.93;;
16766;SDS011;8501;49.926;8.404;2024-02-28T13:49:38;17.33;;;10.27;;
16766;SDS011;8501;49.926;8.404;2024-02-28T13:52:04;18.07;;;10.47;;
16766;SDS011;8501;49.926;8.404;2024-02-28T13:54:30;19.23;;;10.93;;
16766;SDS011;8501;49.926;8.404;2024-02-28T13:56:56;18.47;;;10.80;;
16766;SDS011;8501;49.926;8.404;2024-02-28T13:59:21;19.13;;;10.57;;
16766;SDS011;8501;49.926;8.404;2024-02-28T14:01:47;18.83;;;10.53;;
16766;SDS011;8501;49.926;8.404;2024-02-28T14:04:12;19.57;;;10.73;;
16766;SDS011;8501;49.926;8.404;2024-02-28T14:06:38;17.43;;;10.30;;
16766;SDS011;8501;49.926;8.404;2024-02-28T14:09:03;16.97;;;9.03;;
16766;SDS011;8501;49.926;8.404;2024-02-28T14:11:29;19.37;;;12.93;;
16766;SDS011;8501;49.926;8.404;2024-02-28T14:13:55;19.87;;;15.30;;
16766;SDS011;8501;49.926;8.404;2024-02-28T14:16:21;17.83;;;11.17;;
16766;SDS011;8501;49.926;8.404;2024-02-28T14:18:46;16.03;;;9.80;;
16766;SDS011;8501;49.926;8.404;2024-02-28T14:21:12;16.90;;;9.43;;
16766;SDS011;8501;49.926;8.404;2024-02-28T14:23:38;17.87;;;10.53;;
16766;SDS011;8501;49.926;8.404;2024-02-28T14:26:04;17.93;;;10.33;;
16766;SDS011;8501;49.926;8.404;2024-02-28T14:28:29;14.87;;;9.07;;
16766;SDS011;8501;49.926;8.404;2024-02-28T14:30:55;15.57;;;9.77;;